sensor_id;sensor_type;location;lat;lon;timestamp;pressure;altitude;pressure_sealevel;temperature;humidity
49459;BME280;35354;51.296;16.924;2023-02-17T00:00:45;100081.09;;;3.15;93.15
49459;BME280;35354;51.296;16.924;2023-02-17T00:03:10;100087.91;;;3.20;92.78
49459;BME280;35354;51.296;16.924;2023-02-17T00:05:38;100091.28;;;3.24;93.18
49459;BME280;35354;51.296;16.924;2023-02-17T00:08:04;100089.56;;;3.26;93.12
49459;BME280;35354;51.296;16.924;2023-02-17T00:10:30;100063.94;;;3.14;93.13
49459;BME280;35354;51.296;16.924;2023-02-17T00:12:56;100101.59;;;3.22;93.13
49459;BME280;35354;51.296;16.924;2023-02-17T00:15:21;100069.13;;;3.09;92.93
49459;BME280;35354;51.296;16.924;2023-02-17T00:17:46;100054.66;;;3.00;92.84
49459;BME280;35354;51.296;16.924;2023-02-17T00:20:12;100071.66;;;3.17;92.82
49459;BME280;35354;51.296;16.924;2023-02-17T00:22:37;100091.16;;;3.36;92.84
49459;BME280;35354;51.296;16.924;2023-02-17T00:25:02;100077.47;;;3.33;92.53
49459;BME280;35354;51.296;16.924;2023-02-17T00:27:28;100043.31;;;3.18;92.13
49459;BME280;35354;51.296;16.924;2023-02-17T00:29:53;100058.53;;;3.37;91.95
49459;BME280;35354;51.296;16.924;2023-02-17T00:32:18;100068.72;;;3.50;91.59
49459;BME280;35354;51.296;16.924;2023-02-17T00:34:44;100059.31;;;3.46;91.45
49459;BME280;35354;51.296;16.924;2023-02-17T00:37:09;100052.41;;;3.50;91.33
49459;BME280;35354;51.296;16.924;2023-02-17T00:39:34;100052.41;;;3.48;90.79
49459;BME280;35354;51.296;16.924;2023-02-17T00:42:00;100083.09;;;3.68;90.62
49459;BME280;35354;51.296;16.924;2023-02-17T00:44:25;100071.91;;;3.69;90.54
49459;BME280;35354;51.296;16.924;2023-02-17T00:46:51;100063.38;;;3.66;90.22
49459;BME280;35354;51.296;16.924;2023-02-17T00:49:19;100068.47;;;3.72;90.15
49459;BME280;35354;51.296;16.924;2023-02-17T00:51:45;100069.22;;;3.79;90.29
49459;BME280;35354;51.296;16.924;2023-02-17T00:54:11;100064.13;;;3.75;90.43
49459;BME280;35354;51.296;16.924;2023-02-17T00:56:37;100049.63;;;3.68;90.50
49459;BME280;35354;51.296;16.924;2023-02-17T00:59:02;100061.56;;;3.75;89.64
49459;BME280;35354;51.296;16.924;2023-02-17T01:01:29;100033.38;;;3.62;89.44
49459;BME280;35354;51.296;16.924;2023-02-17T01:03:54;100044.38;;;3.74;89.89
49459;BME280;35354;51.296;16.924;2023-02-17T01:06:25;100071.69;;;3.89;89.64
49459;BME280;35354;51.296;16.924;2023-02-17T01:08:52;100045.16;;;3.81;90.21
49459;BME280;35354;51.296;16.924;2023-02-17T01:11:23;100050.34;;;3.78;90.24
49459;BME280;35354;51.296;16.924;2023-02-17T01:13:49;100074.19;;;3.94;90.38
49459;BME280;35354;51.296;16.924;2023-02-17T01:16:24;100058.78;;;3.92;89.82
49459;BME280;35354;51.296;16.924;2023-02-17T01:18:49;100037.34;;;3.87;89.69
49459;BME280;35354;51.296;16.924;2023-02-17T01:21:26;100056.91;;;4.02;89.42
49459;BME280;35354;51.296;16.924;2023-02-17T01:23:55;100050.81;;;4.08;89.06
49459;BME280;35354;51.296;16.924;2023-02-17T01:26:22;100034.53;;;4.04;88.76
49459;BME280;35354;51.296;16.924;2023-02-17T01:28:49;100048.25;;;4.08;88.74
49459;BME280;35354;51.296;16.924;2023-02-17T01:31:15;100026.78;;;4.07;88.54
49459;BME280;35354;51.296;16.924;2023-02-17T01:33:40;100033.56;;;4.14;88.83
49459;BME280;35354;51.296;16.924;2023-02-17T01:36:08;100007.97;;;4.00;88.60
49459;BME280;35354;51.296;16.924;2023-02-17T01:38:34;100036.09;;;4.17;88.59
49459;BME280;35354;51.296;16.924;2023-02-17T01:41:00;100019.84;;;4.11;88.47
49459;BME280;35354;51.296;16.924;2023-02-17T01:43:26;100030.03;;;4.20;88.88
49459;BME280;35354;51.296;16.924;2023-02-17T01:45:59;100030.84;;;4.23;88.70
49459;BME280;35354;51.296;16.924;2023-02-17T01:48:42;100003.53;;;4.10;88.21
49459;BME280;35354;51.296;16.924;2023-02-17T01:51:14;100017.91;;;4.25;88.22
49459;BME280;35354;51.296;16.924;2023-02-17T01:53:49;100011.09;;;4.21;88.79
49459;BME280;35354;51.296;16.924;2023-02-17T01:56:16;100002.47;;;4.23;88.28
49459;BME280;35354;51.296;16.924;2023-02-17T01:58:46;99988.78;;;4.20;88.25
49459;BME280;35354;51.296;16.924;2023-02-17T02:01:15;99976.81;;;4.16;88.78
49459;BME280;35354;51.296;16.924;2023-02-17T02:03:41;99992.97;;;4.27;88.05
49459;BME280;35354;51.296;16.924;2023-02-17T02:06:12;99963.91;;;4.16;88.23
49459;BME280;35354;51.296;16.924;2023-02-17T02:08:56;99982.66;;;4.27;88.41
49459;BME280;35354;51.296;16.924;2023-02-17T02:11:23;99963.88;;;4.19;87.94
49459;BME280;35354;51.296;16.924;2023-02-17T02:13:49;99980.84;;;4.32;88.08
49459;BME280;35354;51.296;16.924;2023-02-17T02:16:30;99983.38;;;4.35;88.17
49459;BME280;35354;51.296;16.924;2023-02-17T02:32:42;99959.13;;;4.45;89.24
49459;BME280;35354;51.296;16.924;2023-02-17T02:35:21;99940.31;;;4.40;89.47
49459;BME280;35354;51.296;16.924;2023-02-17T02:37:57;99951.31;;;4.50;89.45
49459;BME280;35354;51.296;16.924;2023-02-17T02:40:30;99936.84;;;4.41;89.69
49459;BME280;35354;51.296;16.924;2023-02-17T02:42:57;99941.84;;;4.52;89.50
49459;BME280;35354;51.296;16.924;2023-02-17T02:45:24;99942.66;;;4.54;89.36
49459;BME280;35354;51.296;16.924;2023-02-17T02:47:55;99915.34;;;4.42;89.60
49459;BME280;35354;51.296;16.924;2023-02-17T02:50:51;99925.53;;;4.52;89.70
49459;BME280;35354;51.296;16.924;2023-02-17T03:04:03;99924.59;;;4.54;90.46
49459;BME280;35354;51.296;16.924;2023-02-17T03:06:37;99894.06;;;4.31;90.52
49459;BME280;35354;51.296;16.924;2023-02-17T03:09:09;99908.41;;;4.47;90.29
49459;BME280;35354;51.296;16.924;2023-02-17T03:11:35;99898.03;;;4.49;90.06
49459;BME280;35354;51.296;16.924;2023-02-17T03:14:13;99909.88;;;4.59;89.88
49459;BME280;35354;51.296;16.924;2023-02-17T03:16:40;99925.31;;;4.64;90.26
49459;BME280;35354;51.296;16.924;2023-02-17T03:19:07;99919.28;;;4.63;90.23
49459;BME280;35354;51.296;16.924;2023-02-17T03:21:39;99922.63;;;4.68;89.93
49459;BME280;35354;51.296;16.924;2023-02-17T03:24:06;99920.91;;;4.69;90.04
49459;BME280;35354;51.296;16.924;2023-02-17T03:26:31;99927.81;;;4.67;90.38
49459;BME280;35354;51.296;16.924;2023-02-17T03:28:57;99934.69;;;4.68;90.16
49459;BME280;35354;51.296;16.924;2023-02-17T03:31:22;99925.31;;;4.64;90.47
49459;BME280;35354;51.296;16.924;2023-02-17T03:33:48;99903.13;;;4.54;90.65
49459;BME280;35354;51.296;16.924;2023-02-17T03:36:13;99916.69;;;4.65;90.67
49459;BME280;35354;51.296;16.924;2023-02-17T03:38:38;99922.59;;;4.70;90.33
49459;BME280;35354;51.296;16.924;2023-02-17T03:41:04;99914.91;;;4.67;90.58
49459;BME280;35354;51.296;16.924;2023-02-17T03:43:29;99908.00;;;4.67;90.87
49459;BME280;35354;51.296;16.924;2023-02-17T03:45:55;99895.28;;;4.58;90.71
49459;BME280;35354;51.296;16.924;2023-02-17T03:48:20;99897.03;;;4.58;90.57
49459;BME280;35354;51.296;16.924;2023-02-17T03:50:45;99898.63;;;4.65;90.57
49459;BME280;35354;51.296;16.924;2023-02-17T03:53:11;99883.25;;;4.59;90.77
49459;BME280;35354;51.296;16.924;2023-02-17T03:55:36;99908.81;;;4.72;90.88
49459;BME280;35354;51.296;16.924;2023-02-17T03:58:02;99887.47;;;4.64;90.87
49459;BME280;35354;51.296;16.924;2023-02-17T04:00:27;99900.19;;;4.73;91.04
49459;BME280;35354;51.296;16.924;2023-02-17T04:02:53;99907.78;;;4.80;90.76
49459;BME280;35354;51.296;16.924;2023-02-17T04:05:18;99890.84;;;4.66;90.75
49459;BME280;35354;51.296;16.924;2023-02-17T04:07:43;99883.16;;;4.63;90.93
49459;BME280;35354;51.296;16.924;2023-02-17T04:10:09;99887.41;;;4.66;90.74
49459;BME280;35354;51.296;16.924;2023-02-17T04:12:35;99894.31;;;4.65;91.10
49459;BME280;35354;51.296;16.924;2023-02-17T04:15:00;99900.22;;;4.72;91.28
49459;BME280;35354;51.296;16.924;2023-02-17T04:17:25;99872.91;;;4.59;91.18
49459;BME280;35354;51.296;16.924;2023-02-17T04:19:51;99897.56;;;4.75;91.19
49459;BME280;35354;51.296;16.924;2023-02-17T04:22:16;99891.59;;;4.73;91.40
49459;BME280;35354;51.296;16.924;2023-02-17T04:24:41;99873.75;;;4.61;91.37
49459;BME280;35354;51.296;16.924;2023-02-17T04:27:07;99854.00;;;4.58;91.29
49459;BME280;35354;51.296;16.924;2023-02-17T04:29:33;99888.16;;;4.72;91.43
49459;BME280;35354;51.296;16.924;2023-02-17T04:31:58;99845.53;;;4.53;91.60
49459;BME280;35354;51.296;16.924;2023-02-17T04:34:23;99844.53;;;4.60;91.57
49459;BME280;35354;51.296;16.924;2023-02-17T04:36:50;99867.44;;;4.77;92.04
49459;BME280;35354;51.296;16.924;2023-02-17T04:39:15;99870.81;;;4.81;92.30
49459;BME280;35354;51.296;16.924;2023-02-17T04:41:40;99863.91;;;4.80;93.12
49459;BME280;35354;51.296;16.924;2023-02-17T04:44:06;99847.75;;;4.71;92.90
49459;BME280;35354;51.296;16.924;2023-02-17T04:46:31;99854.59;;;4.74;93.21
49459;BME280;35354;51.296;16.924;2023-02-17T04:48:57;99833.47;;;4.55;93.71
49459;BME280;35354;51.296;16.924;2023-02-17T04:51:22;99835.06;;;4.59;93.97
49459;BME280;35354;51.296;16.924;2023-02-17T04:53:48;99843.59;;;4.64;93.93
49459;BME280;35354;51.296;16.924;2023-02-17T04:56:13;99850.31;;;4.73;94.09
49459;BME280;35354;51.296;16.924;2023-02-17T04:58:38;99848.56;;;4.73;94.02
49459;BME280;35354;51.296;16.924;2023-02-17T05:01:04;99829.16;;;4.56;94.46
49459;BME280;35354;51.296;16.924;2023-02-17T05:03:29;99858.22;;;4.64;94.83
49459;BME280;35354;51.296;16.924;2023-02-17T05:05:55;99847.88;;;4.65;95.07
49459;BME280;35354;51.296;16.924;2023-02-17T05:08:20;99847.88;;;4.65;95.21
49459;BME280;35354;51.296;16.924;2023-02-17T05:10:46;99846.13;;;4.66;95.24
49459;BME280;35354;51.296;16.924;2023-02-17T05:13:11;99839.25;;;4.66;94.96
49459;BME280;35354;51.296;16.924;2023-02-17T05:15:36;99821.50;;;4.51;95.14
49459;BME280;35354;51.296;16.924;2023-02-17T05:18:02;99848.84;;;4.58;95.62
49459;BME280;35354;51.296;16.924;2023-02-17T05:20:28;99829.25;;;4.51;95.65
49459;BME280;35354;51.296;16.924;2023-02-17T05:22:53;99827.47;;;4.53;95.58
49459;BME280;35354;51.296;16.924;2023-02-17T05:25:18;99848.72;;;4.66;95.72
49459;BME280;35354;51.296;16.924;2023-02-17T05:27:44;99819.69;;;4.55;95.64
49459;BME280;35354;51.296;16.924;2023-02-17T05:30:09;99840.84;;;4.73;95.42
49459;BME280;35354;51.296;16.924;2023-02-17T05:32:35;99832.25;;;4.73;95.58
49459;BME280;35354;51.296;16.924;2023-02-17T05:35:00;99815.13;;;4.67;95.64
49459;BME280;35354;51.296;16.924;2023-02-17T05:37:26;99821.84;;;4.76;95.26
49459;BME280;35354;51.296;16.924;2023-02-17T05:39:51;99831.13;;;4.86;95.09
49459;BME280;35354;51.296;16.924;2023-02-17T05:42:16;99780.91;;;4.59;95.40
49459;BME280;35354;51.296;16.924;2023-02-17T05:44:42;99785.84;;;4.70;95.21
49459;BME280;35354;51.296;16.924;2023-02-17T05:47:07;99823.22;;;4.92;95.13
49459;BME280;35354;51.296;16.924;2023-02-17T05:49:33;99820.63;;;4.94;95.32
49459;BME280;35354;51.296;16.924;2023-02-17T05:51:58;99804.31;;;4.93;95.21
49459;BME280;35354;51.296;16.924;2023-02-17T05:54:23;99811.88;;;5.01;95.04
49459;BME280;35354;51.296;16.924;2023-02-17T05:56:49;99824.81;;;4.99;95.42
49459;BME280;35354;51.296;16.924;2023-02-17T05:59:14;99824.94;;;4.93;95.61
49459;BME280;35354;51.296;16.924;2023-02-17T06:01:39;99810.22;;;4.98;95.53
49459;BME280;35354;51.296;16.924;2023-02-17T06:04:05;99825.59;;;5.03;95.75
49459;BME280;35354;51.296;16.924;2023-02-17T06:06:30;99803.41;;;4.94;96.35
49459;BME280;35354;51.296;16.924;2023-02-17T06:08:55;99816.81;;;5.12;96.09
49459;BME280;35354;51.296;16.924;2023-02-17T06:11:20;99786.25;;;4.92;96.21
49459;BME280;35354;51.296;16.924;2023-02-17T06:13:46;99804.06;;;5.04;96.79
49459;BME280;35354;51.296;16.924;2023-02-17T06:16:11;99820.13;;;5.17;96.94
49459;BME280;35354;51.296;16.924;2023-02-17T06:18:36;99797.16;;;5.05;96.83
49459;BME280;35354;51.296;16.924;2023-02-17T06:21:02;99817.44;;;5.21;97.46
49459;BME280;35354;51.296;16.924;2023-02-17T06:23:27;99807.38;;;5.09;97.54
49459;BME280;35354;51.296;16.924;2023-02-17T06:25:53;99821.75;;;5.22;97.86
49459;BME280;35354;51.296;16.924;2023-02-17T06:28:19;99822.66;;;5.20;98.50
49459;BME280;35354;51.296;16.924;2023-02-17T06:30:44;99818.38;;;5.19;99.16
49459;BME280;35354;51.296;16.924;2023-02-17T06:33:10;99775.03;;;4.93;99.84
49459;BME280;35354;51.296;16.924;2023-02-17T06:35:35;99797.06;;;5.09;99.72
49459;BME280;35354;51.296;16.924;2023-02-17T06:38:01;99804.69;;;5.14;100.00
49459;BME280;35354;51.296;16.924;2023-02-17T06:40:26;99796.47;;;4.98;100.00
49459;BME280;35354;51.296;16.924;2023-02-17T06:42:51;99792.09;;;5.00;100.00
49459;BME280;35354;51.296;16.924;2023-02-17T06:45:17;99807.28;;;5.14;100.00
49459;BME280;35354;51.296;16.924;2023-02-17T06:47:42;99797.09;;;5.08;100.00
49459;BME280;35354;51.296;16.924;2023-02-17T06:50:09;99799.72;;;5.06;100.00
49459;BME280;35354;51.296;16.924;2023-02-17T06:52:34;99797.16;;;5.05;100.00
49459;BME280;35354;51.296;16.924;2023-02-17T06:55:00;99782.94;;;4.87;100.00
49459;BME280;35354;51.296;16.924;2023-02-17T06:57:25;99759.34;;;4.20;100.00
49459;BME280;35354;51.296;16.924;2023-02-17T06:59:51;99780.09;;;4.12;100.00
49459;BME280;35354;51.296;16.924;2023-02-17T07:02:16;99772.66;;;3.95;100.00
49459;BME280;35354;51.296;16.924;2023-02-17T07:04:42;99773.66;;;3.88;100.00
49459;BME280;35354;51.296;16.924;2023-02-17T07:07:08;99799.97;;;4.06;100.00
49459;BME280;35354;51.296;16.924;2023-02-17T07:09:34;99776.06;;;3.97;100.00
49459;BME280;35354;51.296;16.924;2023-02-17T07:12:00;99780.31;;;4.00;100.00
49459;BME280;35354;51.296;16.924;2023-02-17T07:14:26;99776.78;;;4.06;100.00
49459;BME280;35354;51.296;16.924;2023-02-17T07:16:52;99801.38;;;4.23;100.00
49459;BME280;35354;51.296;16.924;2023-02-17T07:19:17;99775.00;;;4.09;100.00
49459;BME280;35354;51.296;16.924;2023-02-17T07:21:43;99765.59;;;4.07;100.00
49459;BME280;35354;51.296;16.924;2023-02-17T07:24:09;99778.34;;;4.14;100.00
49459;BME280;35354;51.296;16.924;2023-02-17T07:26:35;99788.63;;;4.16;100.00
49459;BME280;35354;51.296;16.924;2023-02-17T07:29:02;99793.78;;;4.17;100.00
49459;BME280;35354;51.296;16.924;2023-02-17T07:31:28;99782.44;;;4.24;100.00
49459;BME280;35354;51.296;16.924;2023-02-17T07:33:53;99766.13;;;4.24;100.00
49459;BME280;35354;51.296;16.924;2023-02-17T07:36:18;99758.53;;;4.16;100.00
49459;BME280;35354;51.296;16.924;2023-02-17T07:38:44;99781.59;;;4.24;100.00
49459;BME280;35354;51.296;16.924;2023-02-17T07:41:21;99770.56;;;4.16;100.00
49459;BME280;35354;51.296;16.924;2023-02-17T07:43:48;99773.06;;;4.22;100.00
49459;BME280;35354;51.296;16.924;2023-02-17T07:46:17;99761.25;;;4.10;100.00
49459;BME280;35354;51.296;16.924;2023-02-17T07:48:42;99769.63;;;4.21;100.00
49459;BME280;35354;51.296;16.924;2023-02-17T07:51:13;99787.97;;;4.51;100.00
49459;BME280;35354;51.296;16.924;2023-02-17T07:53:39;99787.13;;;4.49;100.00
49459;BME280;35354;51.296;16.924;2023-02-17T07:56:08;99777.31;;;4.23;100.00
49459;BME280;35354;51.296;16.924;2023-02-17T07:58:35;99779.59;;;4.40;100.00
49459;BME280;35354;51.296;16.924;2023-02-17T08:01:05;99748.50;;;4.46;100.00
49459;BME280;35354;51.296;16.924;2023-02-17T08:03:30;99756.56;;;4.31;100.00
49459;BME280;35354;51.296;16.924;2023-02-17T08:05:56;99760.00;;;4.30;100.00
49459;BME280;35354;51.296;16.924;2023-02-17T08:08:21;99740.56;;;4.57;100.00
49459;BME280;35354;51.296;16.924;2023-02-17T08:11:07;99743.44;;;4.41;100.00
49459;BME280;35354;51.296;16.924;2023-02-17T08:13:52;99763.34;;;4.35;100.00
49459;BME280;35354;51.296;16.924;2023-02-17T08:16:17;99757.72;;;4.58;100.00
49459;BME280;35354;51.296;16.924;2023-02-17T08:18:43;99769.81;;;4.56;100.00
49459;BME280;35354;51.296;16.924;2023-02-17T08:21:08;99738.47;;;4.32;100.00
49459;BME280;35354;51.296;16.924;2023-02-17T08:23:33;99746.56;;;4.57;100.00
49459;BME280;35354;51.296;16.924;2023-02-17T08:25:59;99767.13;;;5.02;100.00
49459;BME280;35354;51.296;16.924;2023-02-17T08:28:24;99745.25;;;4.78;100.00
49459;BME280;35354;51.296;16.924;2023-02-17T08:30:50;99760.75;;;4.78;100.00
49459;BME280;35354;51.296;16.924;2023-02-17T08:33:15;99746.13;;;4.79;100.00
49459;BME280;35354;51.296;16.924;2023-02-17T08:35:44;99756.47;;;5.16;100.00
49459;BME280;35354;51.296;16.924;2023-02-17T08:38:09;99761.13;;;5.00;100.00
49459;BME280;35354;51.296;16.924;2023-02-17T08:40:34;99734.78;;;4.84;100.00
49459;BME280;35354;51.296;16.924;2023-02-17T08:43:00;99744.00;;;5.33;100.00
49459;BME280;35354;51.296;16.924;2023-02-17T08:45:25;99738.41;;;5.16;100.00
49459;BME280;35354;51.296;16.924;2023-02-17T08:47:51;99715.78;;;4.90;100.00
49459;BME280;35354;51.296;16.924;2023-02-17T08:50:16;99746.88;;;5.22;100.00
49459;BME280;35354;51.296;16.924;2023-02-17T08:52:44;99720.41;;;5.48;100.00
49459;BME280;35354;51.296;16.924;2023-02-17T08:55:09;99753.03;;;5.53;100.00
49459;BME280;35354;51.296;16.924;2023-02-17T08:57:35;99728.91;;;5.16;100.00
49459;BME280;35354;51.296;16.924;2023-02-17T09:00:00;99752.03;;;5.21;100.00
49459;BME280;35354;51.296;16.924;2023-02-17T09:02:26;99746.94;;;5.55;100.00
49459;BME280;35354;51.296;16.924;2023-02-17T09:04:51;99745.41;;;5.81;100.00
49459;BME280;35354;51.296;16.924;2023-02-17T09:07:16;99749.66;;;5.49;100.00
49459;BME280;35354;51.296;16.924;2023-02-17T09:09:42;99743.97;;;5.35;100.00
49459;BME280;35354;51.296;16.924;2023-02-17T09:12:07;99753.69;;;5.61;100.00
49459;BME280;35354;51.296;16.924;2023-02-17T09:14:33;99751.34;;;5.86;100.00
49459;BME280;35354;51.296;16.924;2023-02-17T09:16:58;99746.69;;;5.64;100.00
49459;BME280;35354;51.296;16.924;2023-02-17T09:19:23;99753.22;;;5.45;100.00
49459;BME280;35354;51.296;16.924;2023-02-17T09:21:49;99737.31;;;5.62;100.00
49459;BME280;35354;51.296;16.924;2023-02-17T09:24:15;99706.66;;;5.46;100.00
49459;BME280;35354;51.296;16.924;2023-02-17T09:26:41;99722.22;;;5.43;100.00
49459;BME280;35354;51.296;16.924;2023-02-17T09:29:06;99715.25;;;5.47;100.00
49459;BME280;35354;51.296;16.924;2023-02-17T09:31:33;99739.53;;;5.75;100.00
49459;BME280;35354;51.296;16.924;2023-02-17T09:33:59;99715.38;;;5.44;100.00
49459;BME280;35354;51.296;16.924;2023-02-17T09:36:29;99711.06;;;5.43;100.00
49459;BME280;35354;51.296;16.924;2023-02-17T09:38:56;99730.75;;;5.83;100.00
49459;BME280;35354;51.296;16.924;2023-02-17T09:41:23;99736.81;;;6.14;100.00
49459;BME280;35354;51.296;16.924;2023-02-17T09:43:50;99697.88;;;6.19;100.00
49459;BME280;35354;51.296;16.924;2023-02-17T09:46:30;99675.13;;;5.68;100.00
49459;BME280;35354;51.296;16.924;2023-02-17T09:49:00;99704.78;;;5.53;100.00
49459;BME280;35354;51.296;16.924;2023-02-17T09:54:35;99707.06;;;5.65;100.00
49459;BME280;35354;51.296;16.924;2023-02-17T09:57:07;99720.09;;;5.61;100.00
49459;BME280;35354;51.296;16.924;2023-02-17T09:59:44;99701.59;;;5.76;100.00
49459;BME280;35354;51.296;16.924;2023-02-17T10:05:06;99702.56;;;6.37;100.00
49459;BME280;35354;51.296;16.924;2023-02-17T10:10:41;99688.38;;;5.88;100.00
49459;BME280;35354;51.296;16.924;2023-02-17T10:13:09;99690.13;;;6.19;100.00
49459;BME280;35354;51.296;16.924;2023-02-17T10:15:39;99693.28;;;5.99;100.00
49459;BME280;35354;51.296;16.924;2023-02-17T10:21:02;99641.88;;;5.87;100.00
49459;BME280;35354;51.296;16.924;2023-02-17T10:23:31;99684.38;;;6.09;100.00
49459;BME280;35354;51.296;16.924;2023-02-17T10:34:00;99673.09;;;6.71;100.00
49459;BME280;35354;51.296;16.924;2023-02-17T10:36:38;99665.56;;;6.91;100.00
49459;BME280;35354;51.296;16.924;2023-02-17T10:39:14;99638.69;;;6.39;100.00
49459;BME280;35354;51.296;16.924;2023-02-17T10:41:40;99636.69;;;6.19;100.00
49459;BME280;35354;51.296;16.924;2023-02-17T10:44:15;99632.81;;;6.34;100.00
49459;BME280;35354;51.296;16.924;2023-02-17T10:46:43;99639.25;;;6.77;100.00
49459;BME280;35354;51.296;16.924;2023-02-17T10:49:17;99619.84;;;6.90;100.00
49459;BME280;35354;51.296;16.924;2023-02-17T10:51:46;99643.78;;;7.25;100.00
49459;BME280;35354;51.296;16.924;2023-02-17T10:54:26;99628.06;;;6.77;100.00
49459;BME280;35354;51.296;16.924;2023-02-17T10:56:56;99624.44;;;6.54;100.00
49459;BME280;35354;51.296;16.924;2023-02-17T10:59:30;99601.31;;;6.76;100.00
49459;BME280;35354;51.296;16.924;2023-02-17T11:02:13;99613.97;;;7.12;100.00
49459;BME280;35354;51.296;16.924;2023-02-17T11:04:44;99586.03;;;7.21;100.00
49459;BME280;35354;51.296;16.924;2023-02-17T11:07:11;99596.97;;;7.03;100.00
49459;BME280;35354;51.296;16.924;2023-02-17T11:09:44;99589.28;;;6.75;100.00
49459;BME280;35354;51.296;16.924;2023-02-17T11:12:16;99586.47;;;6.83;100.00
49459;BME280;35354;51.296;16.924;2023-02-17T11:14:46;99581.03;;;7.15;100.00
49459;BME280;35354;51.296;16.924;2023-02-17T11:17:23;99583.03;;;7.34;100.00
49459;BME280;35354;51.296;16.924;2023-02-17T11:19:57;99578.88;;;7.53;100.00
49459;BME280;35354;51.296;16.924;2023-02-17T11:22:35;99559.44;;;6.90;100.00
49459;BME280;35354;51.296;16.924;2023-02-17T11:25:16;99582.16;;;6.82;100.00
49459;BME280;35354;51.296;16.924;2023-02-17T11:27:52;99529.22;;;6.90;100.00
49459;BME280;35354;51.296;16.924;2023-02-17T11:30:18;99551.19;;;7.30;100.00
49459;BME280;35354;51.296;16.924;2023-02-17T11:32:43;99526.63;;;7.40;100.00
49459;BME280;35354;51.296;16.924;2023-02-17T11:38:01;99537.50;;;7.02;100.00
49459;BME280;35354;51.296;16.924;2023-02-17T11:40:31;99532.63;;;6.92;100.00
49459;BME280;35354;51.296;16.924;2023-02-17T11:42:58;99508.53;;;7.15;100.00
49459;BME280;35354;51.296;16.924;2023-02-17T11:45:28;99522.88;;;7.49;100.00
49459;BME280;35354;51.296;16.924;2023-02-17T11:50:59;99504.88;;;7.46;100.00
49459;BME280;35354;51.296;16.924;2023-02-17T11:56:15;99470.06;;;7.05;100.00
49459;BME280;35354;51.296;16.924;2023-02-17T12:12:06;99447.31;;;7.36;100.00
49459;BME280;35354;51.296;16.924;2023-02-17T12:14:51;99457.84;;;7.79;100.00
49459;BME280;35354;51.296;16.924;2023-02-17T12:25:44;99444.06;;;7.55;100.00
49459;BME280;35354;51.296;16.924;2023-02-17T12:31:04;99412.31;;;8.15;100.00
49459;BME280;35354;51.296;16.924;2023-02-17T12:33:42;99400.31;;;8.33;100.00
49459;BME280;35354;51.296;16.924;2023-02-17T12:36:14;99402.13;;;8.53;100.00
49459;BME280;35354;51.296;16.924;2023-02-17T12:38:44;99401.16;;;8.56;100.00
49459;BME280;35354;51.296;16.924;2023-02-17T12:41:36;99403.22;;;8.68;100.00
49459;BME280;35354;51.296;16.924;2023-02-17T12:44:14;99388.34;;;8.71;100.00
49459;BME280;35354;51.296;16.924;2023-02-17T12:46:47;99395.78;;;8.81;100.00
49459;BME280;35354;51.296;16.924;2023-02-17T12:51:55;99377.22;;;8.07;100.00
49459;BME280;35354;51.296;16.924;2023-02-17T12:54:53;99381.75;;;8.02;100.00
49459;BME280;35354;51.296;16.924;2023-02-17T12:57:32;99376.44;;;8.47;100.00
49459;BME280;35354;51.296;16.924;2023-02-17T13:00:00;99379.47;;;8.77;100.00
49459;BME280;35354;51.296;16.924;2023-02-17T13:02:30;99373.53;;;8.94;100.00
49459;BME280;35354;51.296;16.924;2023-02-17T13:04:59;99363.66;;;9.02;100.00
49459;BME280;35354;51.296;16.924;2023-02-17T13:07:38;99357.03;;;9.14;100.00
49459;BME280;35354;51.296;16.924;2023-02-17T13:10:15;99333.81;;;9.11;100.00
49459;BME280;35354;51.296;16.924;2023-02-17T13:12:42;99324.13;;;9.14;100.00
49459;BME280;35354;51.296;16.924;2023-02-17T13:15:44;99351.03;;;9.32;100.00
49459;BME280;35354;51.296;16.924;2023-02-17T13:18:29;99345.19;;;9.27;100.00
49459;BME280;35354;51.296;16.924;2023-02-17T13:23:43;99298.03;;;8.18;100.00
49459;BME280;35354;51.296;16.924;2023-02-17T13:34:34;99322.66;;;8.90;100.00
49459;BME280;35354;51.296;16.924;2023-02-17T13:37:13;99297.13;;;8.79;100.00
49459;BME280;35354;51.296;16.924;2023-02-17T13:39:39;99318.91;;;8.95;100.00
49459;BME280;35354;51.296;16.924;2023-02-17T13:44:50;99283.81;;;8.87;100.00
49459;BME280;35354;51.296;16.924;2023-02-17T13:47:16;99303.53;;;8.91;100.00
49459;BME280;35354;51.296;16.924;2023-02-17T13:49:53;99281.28;;;8.25;100.00
49459;BME280;35354;51.296;16.924;2023-02-17T13:52:27;99279.88;;;7.98;100.00
49459;BME280;35354;51.296;16.924;2023-02-17T13:54:59;99280.25;;;8.30;100.00
49459;BME280;35354;51.296;16.924;2023-02-17T13:57:28;99248.16;;;8.32;100.00
49459;BME280;35354;51.296;16.924;2023-02-17T14:00:18;99261.88;;;8.55;100.00
49459;BME280;35354;51.296;16.924;2023-02-17T14:03:10;99260.78;;;8.60;100.00
49459;BME280;35354;51.296;16.924;2023-02-17T14:05:39;99260.91;;;8.57;100.00
49459;BME280;35354;51.296;16.924;2023-02-17T14:08:13;99254.06;;;8.56;100.00
49459;BME280;35354;51.296;16.924;2023-02-17T14:10:41;99222.44;;;8.46;100.00
49459;BME280;35354;51.296;16.924;2023-02-17T14:13:09;99227.19;;;7.97;100.00
49459;BME280;35354;51.296;16.924;2023-02-17T14:15:34;99236.50;;;7.81;100.00
49459;BME280;35354;51.296;16.924;2023-02-17T14:18:11;99230.78;;;7.73;100.00
49459;BME280;35354;51.296;16.924;2023-02-17T14:20:37;99215.38;;;7.90;100.00
49459;BME280;35354;51.296;16.924;2023-02-17T14:23:04;99229.59;;;8.21;100.00
49459;BME280;35354;51.296;16.924;2023-02-17T14:25:33;99232.00;;;8.25;100.00
49459;BME280;35354;51.296;16.924;2023-02-17T14:27:59;99202.81;;;8.20;100.00
49459;BME280;35354;51.296;16.924;2023-02-17T14:30:37;99206.22;;;8.22;100.00
49459;BME280;35354;51.296;16.924;2023-02-17T14:35:30;99196.97;;;8.36;100.00